createdAt,value
2019-03-05T00:00:18.649Z,89.82
2019-03-05T00:02:48.487Z,89.92
2019-03-05T00:05:18.524Z,90.10
2019-03-05T00:07:48.825Z,90.26
2019-03-05T00:10:19.023Z,90.34
2019-03-05T00:12:48.810Z,90.38
2019-03-05T00:15:22.953Z,90.37
2019-03-05T00:17:52.821Z,90.30
2019-03-05T00:20:22.895Z,90.05
2019-03-05T00:22:53.934Z,90.04
2019-03-05T00:25:42.200Z,89.83
2019-03-05T00:28:53.449Z,89.68
2019-03-05T00:31:41.626Z,89.52
2019-03-05T00:35:08.885Z,89.38
2019-03-05T00:38:05.560Z,89.25
2019-03-05T00:41:16.113Z,89.31
2019-03-05T00:44:39.150Z,89.36
2019-03-05T00:48:12.167Z,89.30
2019-03-05T00:51:59.554Z,89.42
2019-03-05T00:55:29.470Z,89.45
2019-03-05T00:58:45.404Z,89.51
2019-03-05T01:02:14.207Z,89.55
2019-03-05T01:05:00.423Z,89.57
2019-03-05T01:07:30.267Z,89.56
2019-03-05T01:10:00.034Z,89.56
2019-03-05T01:12:30.321Z,89.60
2019-03-05T01:15:00.349Z,89.59
2019-03-05T01:17:30.058Z,89.56
2019-03-05T01:19:59.809Z,89.46
2019-03-05T01:22:29.476Z,89.50
2019-03-05T01:24:59.462Z,89.52
2019-03-05T01:27:29.291Z,89.51
2019-03-05T01:29:59.123Z,89.53
2019-03-05T01:32:48.362Z,89.50
2019-03-05T01:35:32.154Z,89.42
2019-03-05T01:38:02.008Z,89.42
2019-03-05T01:40:44.654Z,89.41
2019-03-05T01:43:14.358Z,89.33
2019-03-05T01:45:44.454Z,89.38
2019-03-05T01:48:14.318Z,89.40
2019-03-05T01:50:44.447Z,89.38
2019-03-05T01:53:14.370Z,89.42
2019-03-05T01:55:44.193Z,89.36
2019-03-05T01:58:13.879Z,89.35
2019-03-05T02:00:43.925Z,89.34
2019-03-05T02:03:13.906Z,89.25
2019-03-05T02:05:43.655Z,89.20
2019-03-05T02:08:13.455Z,89.21
2019-03-05T02:10:43.585Z,89.21
2019-03-05T02:13:13.314Z,89.19
2019-03-05T02:15:43.069Z,89.17
2019-03-05T02:18:17.746Z,89.23
2019-03-05T02:20:47.719Z,89.24
2019-03-05T02:23:27.921Z,89.26
2019-03-05T02:26:06.111Z,89.25
2019-03-05T02:29:25.133Z,89.26
2019-03-05T02:32:24.646Z,89.25
2019-03-05T02:35:37.592Z,89.32
2019-03-05T02:38:59.488Z,89.25
2019-03-05T02:41:44.051Z,89.22
2019-03-05T02:44:49.502Z,89.28
2019-03-05T02:47:57.919Z,89.30
2019-03-05T02:51:09.039Z,89.34
2019-03-05T02:53:54.007Z,89.33
2019-03-05T02:56:35.126Z,89.41
2019-03-05T02:59:04.399Z,89.46
2019-03-05T03:01:46.511Z,89.52
2019-03-05T03:04:18.224Z,89.52
2019-03-05T03:06:47.983Z,89.59
2019-03-05T03:10:11.716Z,89.64
2019-03-05T03:12:41.682Z,89.68
2019-03-05T03:15:13.127Z,89.72
2019-03-05T03:17:43.863Z,89.78
2019-03-05T03:20:18.101Z,89.82
2019-03-05T03:22:51.628Z,89.82
2019-03-05T03:25:22.673Z,89.83
2019-03-05T03:27:52.984Z,89.82
2019-03-05T03:30:27.070Z,89.86
2019-03-05T03:32:57.257Z,89.89
2019-03-05T03:35:27.592Z,89.90
2019-03-05T03:38:02.139Z,89.92
2019-03-05T03:40:35.370Z,89.94
2019-03-05T03:43:06.014Z,89.99
2019-03-05T03:45:37.010Z,90.02
2019-03-05T03:48:07.106Z,90.05
2019-03-05T03:50:37.091Z,90.08
2019-03-05T03:53:10.724Z,90.09
2019-03-05T03:55:41.478Z,90.09
2019-03-05T03:58:11.739Z,90.17
2019-03-05T04:00:42.186Z,90.22
2019-03-05T04:03:17.733Z,90.27
2019-03-05T04:05:49.344Z,90.28
2019-03-05T04:08:20.462Z,90.29
2019-03-05T04:10:57.462Z,90.33
2019-03-05T04:13:34.441Z,90.35
2019-03-05T04:16:08.242Z,90.31
2019-03-05T04:18:43.738Z,90.34
2019-03-05T04:21:22.203Z,90.40
2019-03-05T04:23:56.678Z,90.45
2019-03-05T04:26:53.885Z,90.49
2019-03-05T04:29:32.213Z,90.56
2019-03-05T04:32:23.718Z,90.63
2019-03-05T04:34:59.452Z,90.66
2019-03-05T04:37:35.727Z,90.69
2019-03-05T04:40:11.141Z,90.70
2019-03-05T04:42:49.905Z,90.75
2019-03-05T04:52:31.281Z,90.78
2019-03-05T04:55:12.962Z,90.80
2019-03-05T05:01:24.495Z,90.81
2019-03-05T05:04:00.024Z,90.87
2019-03-05T05:06:45.487Z,90.88
2019-03-05T05:12:43.363Z,90.95
2019-03-05T05:15:35.917Z,90.92
2019-03-05T05:21:01.784Z,90.94
2019-03-05T05:23:45.945Z,90.81
2019-03-05T05:26:23.964Z,90.80
2019-03-05T05:29:15.127Z,90.74
2019-03-05T05:32:03.380Z,90.72
2019-03-05T05:34:37.665Z,90.69
2019-03-05T05:37:08.600Z,90.66
2019-03-05T05:40:25.037Z,90.65
2019-03-05T05:42:55.654Z,90.62
2019-03-05T05:45:28.703Z,90.57
2019-03-05T05:48:02.250Z,90.57
2019-03-05T05:50:33.389Z,90.50
2019-03-05T05:53:04.343Z,90.53
2019-03-05T05:55:34.800Z,90.60
2019-03-05T05:58:04.682Z,90.63
2019-03-05T06:00:39.551Z,90.62
2019-03-05T06:03:10.131Z,90.62
2019-03-05T06:05:40.708Z,90.59
2019-03-05T06:08:12.352Z,90.63
2019-03-05T06:10:42.618Z,90.58
2019-03-05T06:13:12.944Z,90.60
2019-03-05T06:15:43.379Z,90.57
2019-03-05T06:18:13.631Z,90.60
2019-03-05T06:20:44.235Z,90.54
2019-03-05T06:23:15.103Z,90.39
2019-03-05T06:25:45.615Z,90.38
2019-03-05T06:28:18.139Z,90.34
2019-03-05T06:30:49.756Z,90.41
2019-03-05T06:33:20.770Z,90.37
2019-03-05T06:35:51.196Z,90.28
2019-03-05T06:38:27.852Z,90.26
2019-03-05T06:41:02.755Z,90.16
2019-03-05T06:43:37.771Z,90.13
2019-03-05T06:46:12.919Z,90.08
2019-03-05T06:48:58.246Z,89.99
2019-03-05T06:51:32.792Z,89.94
2019-03-05T06:54:12.876Z,89.94
2019-03-05T06:56:45.741Z,89.98
2019-03-05T06:59:17.394Z,89.92
2019-03-05T07:01:58.099Z,89.98
2019-03-05T07:04:32.289Z,90.01
2019-03-05T07:07:05.127Z,90.00
2019-03-05T07:10:37.362Z,89.90
2019-03-05T07:13:19.255Z,89.87
2019-03-05T07:16:05.338Z,89.78
2019-03-05T07:19:01.519Z,89.76
2019-03-05T07:22:03.652Z,89.81
2019-03-05T07:27:35.770Z,89.71
2019-03-05T07:30:21.272Z,89.64
2019-03-05T07:32:52.552Z,89.50
2019-03-05T07:35:24.915Z,89.40
2019-03-05T07:37:55.154Z,89.42
2019-03-05T07:40:25.515Z,89.25
2019-03-05T07:43:07.967Z,89.19
2019-03-05T07:45:39.176Z,89.04
2019-03-05T07:48:09.378Z,88.81
2019-03-05T07:50:39.496Z,88.67
2019-03-05T07:53:11.019Z,88.61
2019-03-05T07:55:46.769Z,88.62
2019-03-05T07:58:17.508Z,88.31
2019-03-05T08:00:50.783Z,88.28
2019-03-05T08:03:22.383Z,88.20
2019-03-05T08:05:52.765Z,87.99
2019-03-05T08:08:58.659Z,87.92
2019-03-05T08:11:31.804Z,87.84
2019-03-05T08:15:07.829Z,87.68
2019-03-05T08:17:46.838Z,87.36
2019-03-05T08:20:21.522Z,87.27
2019-03-05T08:22:53.404Z,87.04
2019-03-05T08:25:30.500Z,87.03
2019-03-05T08:28:04.919Z,86.88
2019-03-05T08:30:39.801Z,86.81
2019-03-05T08:33:13.636Z,86.55
2019-03-05T08:35:44.548Z,86.62
2019-03-05T08:38:16.666Z,86.66
2019-03-05T08:40:47.819Z,86.65
2019-03-05T08:43:18.747Z,86.62
2019-03-05T08:45:50.811Z,86.42
2019-03-05T08:49:01.137Z,86.14
2019-03-05T08:51:32.707Z,85.96
2019-03-05T08:54:07.953Z,85.74
2019-03-05T08:56:38.627Z,85.74
2019-03-05T08:59:09.256Z,85.48
2019-03-05T09:01:41.937Z,85.37
2019-03-05T09:04:19.557Z,85.41
2019-03-05T09:06:51.545Z,85.50
2019-03-05T09:09:26.674Z,85.66
2019-03-05T09:12:02.037Z,85.70
2019-03-05T09:14:34.576Z,85.83
2019-03-05T09:17:07.116Z,85.89
2019-03-05T09:19:38.796Z,85.96
2019-03-05T09:22:09.560Z,86.11
2019-03-05T09:24:41.371Z,86.39
2019-03-05T09:27:11.681Z,86.66
2019-03-05T09:29:41.866Z,86.78
2019-03-05T09:32:13.559Z,86.92
2019-03-05T09:34:43.824Z,87.09
2019-03-05T09:37:14.157Z,87.16
2019-03-05T09:39:44.508Z,87.23
2019-03-05T09:42:14.853Z,87.34
2019-03-05T09:44:44.975Z,87.36
2019-03-05T09:47:14.777Z,87.48
2019-03-05T09:49:44.724Z,87.45
2019-03-05T09:52:14.506Z,87.57
2019-03-05T09:54:44.386Z,87.62
2019-03-05T09:57:14.792Z,87.82
2019-03-05T09:59:44.774Z,87.88
2019-03-05T10:02:14.829Z,88.08
2019-03-05T10:04:45.287Z,88.28
2019-03-05T10:07:18.870Z,88.43
2019-03-05T10:13:15.338Z,87.94
2019-03-05T10:15:45.596Z,88.49
2019-03-05T10:18:16.064Z,88.71
2019-03-05T10:20:46.105Z,88.79
2019-03-05T10:23:16.944Z,88.87
2019-03-05T10:25:47.556Z,88.94
2019-03-05T10:28:17.722Z,89.00
2019-03-05T10:30:47.942Z,89.08
2019-03-05T10:33:18.843Z,89.09
2019-03-05T10:35:49.441Z,89.16
2019-03-05T10:38:19.899Z,89.17
2019-03-05T10:40:49.580Z,89.22
2019-03-05T10:43:20.328Z,89.25
2019-03-05T10:45:50.548Z,89.20
2019-03-05T10:48:20.916Z,89.27
2019-03-05T10:50:51.475Z,89.25
2019-03-05T10:53:21.783Z,89.21
2019-03-05T10:55:52.834Z,89.21
2019-03-05T10:58:33.271Z,89.24
2019-03-05T11:00:58.983Z,89.24
2019-03-05T11:03:30.743Z,89.22
2019-03-05T11:06:09.255Z,89.31
2019-03-05T11:08:39.624Z,89.33
2019-03-05T11:11:13.866Z,89.43
2019-03-05T11:13:48.859Z,89.49
2019-03-05T11:16:30.346Z,89.56
2019-03-05T11:18:52.779Z,89.53
2019-03-05T11:21:25.088Z,89.68
2019-03-05T11:23:55.200Z,89.72
2019-03-05T11:26:25.318Z,89.66
2019-03-05T11:28:55.491Z,89.69
2019-03-05T11:31:25.861Z,89.78
2019-03-05T11:33:55.976Z,89.75
2019-03-05T11:36:26.153Z,89.83
2019-03-05T11:38:56.431Z,89.96
2019-03-05T11:41:26.258Z,90.12
2019-03-05T11:43:57.648Z,90.05
2019-03-05T11:46:27.808Z,89.92
2019-03-05T11:48:57.753Z,89.92
2019-03-05T11:51:28.717Z,89.95
2019-03-05T11:53:58.787Z,90.03
2019-03-05T11:56:28.843Z,89.93
2019-03-05T11:58:58.927Z,90.02
2019-03-05T12:01:33.287Z,89.95
2019-03-05T12:04:06.082Z,90.05
2019-03-05T12:06:36.319Z,90.10
2019-03-05T12:09:07.115Z,90.07
2019-03-05T12:11:37.229Z,90.10
2019-03-05T12:14:07.103Z,90.09
2019-03-05T12:16:38.247Z,90.23
2019-03-05T12:19:08.310Z,90.20
2019-03-05T12:21:38.064Z,90.26
2019-03-05T12:24:08.389Z,90.27
2019-03-05T12:26:38.198Z,90.20
2019-03-05T12:29:09.033Z,90.26
2019-03-05T12:31:39.011Z,90.29
2019-03-05T12:34:12.122Z,90.28
2019-03-05T12:36:43.341Z,90.23
2019-03-05T12:45:06.518Z,90.30
2019-03-05T12:47:37.006Z,90.19
2019-03-05T12:50:11.263Z,90.25
2019-03-05T12:52:41.776Z,90.29
2019-03-05T12:55:12.609Z,90.19
2019-03-05T12:57:43.050Z,90.20
2019-03-05T13:00:18.324Z,90.11
2019-03-05T13:02:55.033Z,90.15
2019-03-05T13:05:25.448Z,90.20
2019-03-05T13:07:56.576Z,90.19
2019-03-05T13:10:34.798Z,90.24
2019-03-05T13:13:00.078Z,90.27
2019-03-05T13:15:30.370Z,90.20
2019-03-05T13:18:00.095Z,90.15
2019-03-05T13:20:30.135Z,90.24
2019-03-05T13:23:00.255Z,90.20
2019-03-05T13:25:31.157Z,90.23
2019-03-05T13:28:04.015Z,90.65
2019-03-05T13:30:34.351Z,90.17
2019-03-05T13:33:04.558Z,90.15
2019-03-05T13:35:34.785Z,90.31
2019-03-05T13:38:07.381Z,90.41
2019-03-05T13:40:38.332Z,90.46
2019-03-05T13:43:09.457Z,90.51
2019-03-05T13:45:48.074Z,90.66
2019-03-05T13:48:22.368Z,90.75
2019-03-05T13:51:24.218Z,90.84
2019-03-05T13:54:12.843Z,90.98
2019-03-05T13:57:29.138Z,91.07
2019-03-05T13:59:59.334Z,91.04
2019-03-05T14:02:53.342Z,90.98
2019-03-05T14:06:00.975Z,91.07
2019-03-05T14:09:22.084Z,91.13
2019-03-05T14:11:53.900Z,91.13
2019-03-05T14:14:30.626Z,91.23
2019-03-05T14:17:21.248Z,91.23
2019-03-05T14:19:51.525Z,91.30
2019-03-05T14:22:22.116Z,91.34
2019-03-05T14:25:01.502Z,91.43
2019-03-05T14:27:24.248Z,91.46
2019-03-05T14:29:55.006Z,91.52
2019-03-05T14:32:25.271Z,91.47
2019-03-05T14:35:16.760Z,91.43
2019-03-05T14:37:47.270Z,91.52
2019-03-05T14:40:25.155Z,91.45
2019-03-05T14:42:55.398Z,91.57
2019-03-05T14:45:27.891Z,91.67
2019-03-05T14:47:59.237Z,91.70
2019-03-05T14:50:29.882Z,91.72
2019-03-05T14:53:00.067Z,91.66
2019-03-05T14:55:31.046Z,91.69
2019-03-05T14:58:00.906Z,91.79
2019-03-05T15:00:31.146Z,91.83
2019-03-05T15:03:01.270Z,91.72
2019-03-05T15:05:31.918Z,91.64
2019-03-05T15:08:02.237Z,92.08
2019-03-05T15:10:32.846Z,92.05
2019-03-05T15:13:14.939Z,91.98
2019-03-05T15:15:35.910Z,92.00
2019-03-05T15:18:09.245Z,91.87
2019-03-05T15:20:40.406Z,91.82
2019-03-05T15:23:10.963Z,91.91
2019-03-05T15:25:41.273Z,91.93
2019-03-05T15:28:11.942Z,91.93
2019-03-05T15:30:44.559Z,91.89
2019-03-05T15:33:20.144Z,91.93
2019-03-05T15:35:50.679Z,91.85
2019-03-05T15:38:22.077Z,91.81
2019-03-05T15:40:52.118Z,91.90
2019-03-05T15:43:22.712Z,91.92
2019-03-05T15:45:53.203Z,91.93
2019-03-05T15:48:23.324Z,91.89
2019-03-05T15:50:53.330Z,91.72
2019-03-05T15:53:27.362Z,91.66
2019-03-05T15:55:56.154Z,91.78
2019-03-05T15:58:27.105Z,91.80
2019-03-05T16:00:57.242Z,91.83
2019-03-05T16:03:27.817Z,91.69
2019-03-05T16:05:59.449Z,91.74
2019-03-05T16:08:32.445Z,91.70
2019-03-05T16:11:12.574Z,91.63
2019-03-05T16:13:43.057Z,91.57
2019-03-05T16:16:14.036Z,91.59
2019-03-05T16:18:44.258Z,91.61
2019-03-05T16:21:15.013Z,91.57
2019-03-05T16:23:45.289Z,91.37
2019-03-05T16:26:16.386Z,91.46
2019-03-05T16:28:46.687Z,91.58
2019-03-05T16:31:49.172Z,91.34
2019-03-05T16:34:45.829Z,91.26
2019-03-05T16:37:32.853Z,91.46
2019-03-05T16:40:22.375Z,91.40
2019-03-05T16:43:29.880Z,91.41
2019-03-05T16:46:17.708Z,91.43
2019-03-05T16:49:10.223Z,91.44
2019-03-05T16:52:02.592Z,91.44
2019-03-05T16:54:48.584Z,91.07
2019-03-05T16:57:46.679Z,90.65
2019-03-05T17:00:30.990Z,90.93
2019-03-05T17:03:20.697Z,90.98
2019-03-05T17:06:02.109Z,90.95
2019-03-05T17:08:49.558Z,90.78
2019-03-05T17:11:44.575Z,90.70
2019-03-05T17:14:14.504Z,90.49
2019-03-05T17:16:44.463Z,90.50
2019-03-05T17:19:14.426Z,90.42
2019-03-05T17:21:44.680Z,90.49
2019-03-05T17:24:14.839Z,90.26
2019-03-05T17:26:44.778Z,90.11
2019-03-05T17:29:14.821Z,90.07
2019-03-05T17:31:44.996Z,89.65
2019-03-05T17:34:15.038Z,89.65
2019-03-05T17:36:45.973Z,89.67
2019-03-05T17:39:21.277Z,89.38
2019-03-05T17:41:52.173Z,89.18
2019-03-05T17:44:22.456Z,89.28
2019-03-05T17:46:58.390Z,89.38
2019-03-05T17:49:29.176Z,89.38
2019-03-05T17:52:01.331Z,89.44
2019-03-05T17:54:32.235Z,89.25
2019-03-05T17:57:03.375Z,89.08
2019-03-05T17:59:35.527Z,89.02
2019-03-05T18:02:06.143Z,88.84
2019-03-05T18:04:36.874Z,88.57
2019-03-05T18:07:12.331Z,88.44
2019-03-05T18:09:43.625Z,88.40
2019-03-05T18:12:14.186Z,88.56
2019-03-05T18:14:53.161Z,88.88
2019-03-05T18:17:29.882Z,89.15
2019-03-05T18:20:01.689Z,89.25
2019-03-05T18:22:33.239Z,89.28
2019-03-05T18:25:12.152Z,89.34
2019-03-05T18:27:45.248Z,89.34
2019-03-05T18:30:24.614Z,89.26
2019-03-05T18:33:00.786Z,89.04
2019-03-05T18:35:39.085Z,88.92
2019-03-05T18:38:21.434Z,88.62
2019-03-05T18:41:06.091Z,88.69
2019-03-05T18:43:40.136Z,88.66
2019-03-05T18:46:10.917Z,88.58
2019-03-05T18:48:43.690Z,88.39
2019-03-05T18:51:14.906Z,88.42
2019-03-05T18:53:47.737Z,88.42
2019-03-05T18:56:20.333Z,88.30
2019-03-05T18:58:52.690Z,88.22
2019-03-05T19:01:25.199Z,88.26
2019-03-05T19:03:57.157Z,88.24
2019-03-05T19:06:47.141Z,88.15
2019-03-05T19:09:19.607Z,88.18
2019-03-05T19:11:50.710Z,88.14
2019-03-05T19:14:23.616Z,88.06
2019-03-05T19:16:58.732Z,87.92
2019-03-05T19:19:30.468Z,87.88
2019-03-05T19:22:00.977Z,87.88
2019-03-05T19:24:31.042Z,87.87
2019-03-05T19:27:01.975Z,87.97
2019-03-05T19:29:32.365Z,87.71
2019-03-05T19:32:02.833Z,87.71
2019-03-05T19:34:34.862Z,87.54
2019-03-05T19:37:07.156Z,87.46
2019-03-05T19:39:37.740Z,87.37
2019-03-05T19:42:08.374Z,87.46
2019-03-05T19:44:41.042Z,87.35
2019-03-05T19:47:17.123Z,87.02
2019-03-05T19:49:47.697Z,87.00
2019-03-05T19:52:19.287Z,86.96
2019-03-05T19:54:49.602Z,86.69
2019-03-05T19:57:20.643Z,86.83
2019-03-05T19:59:51.131Z,86.51
2019-03-05T20:02:23.737Z,86.46
2019-03-05T20:04:55.557Z,86.36
2019-03-05T20:07:28.021Z,86.31
2019-03-05T20:09:59.319Z,86.22
2019-03-05T20:12:31.731Z,86.29
2019-03-05T20:15:02.677Z,86.28
2019-03-05T20:17:32.617Z,86.16
2019-03-05T20:20:03.138Z,85.90
2019-03-05T20:22:34.125Z,85.79
2019-03-05T20:25:07.585Z,85.92
2019-03-05T20:27:38.288Z,85.80
2019-03-05T20:30:12.435Z,85.52
2019-03-05T20:32:43.223Z,85.65
2019-03-05T20:35:14.245Z,85.58
2019-03-05T20:37:44.963Z,85.72
2019-03-05T20:40:17.124Z,85.67
2019-03-05T20:42:47.636Z,85.84
2019-03-05T20:45:20.559Z,85.84
2019-03-05T20:47:53.847Z,85.73
2019-03-05T20:50:25.401Z,85.73
2019-03-05T20:52:57.200Z,85.47
2019-03-05T20:55:28.011Z,85.43
2019-03-05T20:58:01.878Z,85.49
2019-03-05T21:00:35.769Z,85.51
2019-03-05T21:03:06.322Z,85.60
2019-03-05T21:05:38.845Z,85.65
2019-03-05T21:08:09.472Z,85.36
2019-03-05T21:10:40.589Z,85.28
2019-03-05T21:13:11.613Z,85.38
2019-03-05T21:15:46.583Z,85.37
2019-03-05T21:18:19.540Z,85.37
2019-03-05T21:20:50.987Z,85.32
2019-03-05T21:23:23.551Z,85.21
2019-03-05T21:25:56.529Z,85.06
2019-03-05T21:28:30.437Z,85.18
2019-03-05T21:31:03.012Z,85.10
2019-03-05T21:33:36.998Z,85.07
2019-03-05T21:36:08.890Z,84.74
2019-03-05T21:38:41.733Z,84.37
2019-03-05T21:41:13.092Z,84.36
2019-03-05T21:43:43.756Z,84.31
2019-03-05T21:46:18.315Z,84.41
2019-03-05T21:48:49.767Z,84.58
2019-03-05T21:51:23.513Z,84.59
2019-03-05T21:53:55.866Z,84.76
2019-03-05T21:56:34.326Z,84.80
2019-03-05T21:59:05.691Z,84.67
2019-03-05T22:01:38.019Z,84.76
2019-03-05T22:04:09.565Z,84.71
2019-03-05T22:06:41.314Z,84.75
2019-03-05T22:09:12.161Z,84.61
2019-03-05T22:11:45.119Z,84.77
2019-03-05T22:14:19.175Z,84.80
2019-03-05T22:16:50.956Z,84.75
2019-03-05T22:19:25.788Z,84.78
2019-03-05T22:21:57.050Z,84.91
2019-03-05T22:24:29.593Z,84.95
2019-03-05T22:27:01.202Z,84.80
2019-03-05T22:29:32.057Z,84.66
2019-03-05T22:32:02.725Z,84.63
2019-03-05T22:34:34.960Z,84.68
2019-03-05T22:37:06.802Z,84.78
2019-03-05T22:39:38.514Z,84.78
2019-03-05T22:42:09.456Z,84.76
2019-03-05T22:44:39.686Z,84.62
2019-03-05T22:47:11.525Z,84.66
2019-03-05T22:49:42.883Z,84.32
2019-03-05T22:52:13.627Z,84.43
2019-03-05T22:54:43.863Z,84.40
2019-03-05T22:57:14.563Z,84.20
2019-03-05T22:59:45.366Z,84.34
2019-03-05T23:02:16.135Z,84.30
2019-03-05T23:04:47.035Z,84.32
2019-03-05T23:07:17.488Z,84.38
2019-03-05T23:09:48.494Z,84.34
2019-03-05T23:12:19.190Z,84.30
2019-03-05T23:14:50.680Z,84.24
2019-03-05T23:17:23.265Z,84.03
2019-03-05T23:19:54.469Z,83.78
2019-03-05T23:22:25.331Z,83.89
2019-03-05T23:24:56.274Z,83.84
2019-03-05T23:27:26.957Z,83.75
2019-03-05T23:29:58.337Z,83.72
2019-03-05T23:32:29.561Z,83.63
2019-03-05T23:35:00.646Z,83.67
2019-03-05T23:37:31.099Z,83.65
2019-03-05T23:40:01.984Z,83.71
2019-03-05T23:42:32.090Z,83.71
2019-03-05T23:45:03.073Z,83.78
2019-03-05T23:47:33.355Z,83.92
2019-03-05T23:50:04.215Z,83.95
2019-03-05T23:52:34.899Z,83.73
2019-03-05T23:55:05.377Z,83.77
2019-03-05T23:57:35.743Z,83.87
